Time;durP1;ratioP1;P1;durP2;ratioP2;P2;SDS_P1;SDS_P2;PMS_P1;PMS_P2;Temp;Humidity;BMP_temperature;BMP_pressure;BME280_temperature;BME280_humidity;BME280_pressure;Samples;Min_cycle;Max_cycle;Signal;HPM_P1;HPM_P2
2023/10/09 00:01:46;;;;;;;19.80;12.33;;;13.50;99.90;;;;;;5040582;28;20465;-79
2023/10/09 00:04:13;;;;;;;19.37;10.97;;;13.50;99.90;;;;;;5030232;28;20843;-79
2023/10/09 00:06:41;;;;;;;18.27;11.80;;;13.50;99.90;;;;;;5020754;28;20424;-78
2023/10/09 00:11:45;;;;;;;14.37;10.60;;;13.50;99.90;;;;;;5038212;28;20416;-78
2023/10/09 00:14:11;;;;;;;15.23;10.63;;;13.50;99.90;;;;;;5020105;28;20425;-78
2023/10/09 00:16:47;;;;;;;17.63;10.33;;;13.50;99.90;;;;;;5003873;28;20182;-78
2023/10/09 00:19:34;;;;;;;17.77;10.30;;;13.50;99.90;;;;;;5021207;28;20881;-78
2023/10/09 00:22:04;;;;;;;17.03;10.77;;;13.40;99.90;;;;;;5022458;28;20495;-78
2023/10/09 00:24:32;;;;;;;23.20;10.33;;;13.50;99.90;;;;;;5038024;28;20492;-78
2023/10/09 00:27:13;;;;;;;16.10;10.67;;;13.40;99.90;;;;;;5037640;28;20441;-78
2023/10/09 00:29:45;;;;;;;16.60;10.10;;;13.40;99.90;;;;;;5037919;28;20416;-78
2023/10/09 00:32:27;;;;;;;13.30;10.23;;;13.40;99.90;;;;;;5036797;28;20408;-78
2023/10/09 00:34:58;;;;;;;18.50;10.63;;;13.40;99.90;;;;;;5037823;28;20417;-78
2023/10/09 00:37:25;;;;;;;14.17;9.87;;;13.40;99.90;;;;;;5048515;28;20602;-78
2023/10/09 00:39:57;;;;;;;17.77;10.80;;;13.30;99.90;;;;;;5040624;28;20511;-78
2023/10/09 00:42:38;;;;;;;17.57;10.37;;;13.30;99.90;;;;;;5034533;28;20792;-78
2023/10/09 00:45:04;;;;;;;14.97;10.00;;;13.30;99.90;;;;;;5039252;28;20516;-78
2023/10/09 00:47:34;;;;;;;15.37;11.10;;;13.20;99.90;;;;;;5039008;28;20416;-78
2023/10/09 00:50:20;;;;;;;16.57;9.60;;;13.20;99.90;;;;;;5056734;28;20407;-78
2023/10/09 00:53:01;;;;;;;12.50;9.80;;;13.20;99.90;;;;;;5056200;28;20424;-78
2023/10/09 00:55:37;;;;;;;14.07;9.70;;;13.20;99.90;;;;;;5057336;28;20716;-78
2023/10/09 00:58:09;;;;;;;15.17;9.37;;;13.20;99.90;;;;;;5039065;28;20774;-78
2023/10/09 01:05:58;;;;;;;15.83;10.60;;;13.10;99.90;;;;;;5056808;28;20416;-78
2023/10/09 01:08:43;;;;;;;15.50;9.90;;;13.10;99.90;;;;;;5040452;28;20434;-78
2023/10/09 01:11:20;;;;;;;14.30;10.00;;;13.10;99.90;;;;;;5005217;28;20786;-78
2023/10/09 01:16:17;;;;;;;11.67;9.80;;;13.00;99.90;;;;;;5036372;28;20413;-78
2023/10/09 01:18:51;;;;;;;15.10;10.13;;;12.90;99.90;;;;;;5038789;28;20413;-78
2023/10/09 01:21:18;;;;;;;12.00;10.37;;;12.90;99.90;;;;;;5021714;28;21523;-78
2023/10/09 01:26:34;;;;;;;14.53;10.00;;;13.00;99.90;;;;;;5056196;28;20788;-79
2023/10/09 01:29:01;;;;;;;15.57;9.40;;;12.90;99.90;;;;;;5055639;28;20446;-79
2023/10/09 01:31:27;;;;;;;14.80;9.50;;;12.90;99.90;;;;;;5038143;28;20420;-79
2023/10/09 01:33:54;;;;;;;13.17;9.23;;;13.00;99.90;;;;;;5056078;28;20428;-78
2023/10/09 01:36:31;;;;;;;14.23;8.43;;;13.00;99.90;;;;;;5038142;28;20412;-79
2023/10/09 01:39:21;;;;;;;11.93;8.77;;;13.00;99.90;;;;;;5022479;28;20468;-79
2023/10/09 01:41:57;;;;;;;13.97;10.00;;;13.00;99.90;;;;;;5055630;28;20478;-79
2023/10/09 01:44:25;;;;;;;14.27;8.93;;;13.10;99.90;;;;;;5054884;28;20400;-78
2023/10/09 01:46:54;;;;;;;18.17;11.13;;;13.10;99.90;;;;;;5056243;28;20503;-78
2023/10/09 01:49:29;;;;;;;13.77;10.03;;;13.10;99.90;;;;;;5037828;28;20453;-79
2023/10/09 01:51:58;;;;;;;16.47;9.10;;;13.10;99.90;;;;;;5037938;28;20423;-78
2023/10/09 01:54:36;;;;;;;14.93;10.10;;;13.10;99.90;;;;;;5021520;28;20826;-79
2023/10/09 01:57:05;;;;;;;15.20;9.27;;;13.20;99.90;;;;;;5037634;28;20416;-79
2023/10/09 01:59:37;;;;;;;14.00;8.70;;;13.20;99.90;;;;;;5037950;28;20947;-79
2023/10/09 02:02:14;;;;;;;15.57;9.67;;;13.20;99.90;;;;;;5037802;28;20467;-79
2023/10/09 02:04:42;;;;;;;15.57;9.00;;;13.20;99.90;;;;;;5037709;28;20786;-78
2023/10/09 02:07:12;;;;;;;11.83;9.10;;;13.20;99.90;;;;;;5054201;28;20424;-79
2023/10/09 02:09:46;;;;;;;16.63;8.67;;;13.20;99.90;;;;;;5055663;28;20412;-79
2023/10/09 02:12:12;;;;;;;18.00;8.57;;;13.20;99.90;;;;;;5023578;28;20527;-79
2023/10/09 02:14:41;;;;;;;12.80;10.23;;;13.20;99.90;;;;;;5055384;28;20412;-79
2023/10/09 02:17:17;;;;;;;16.93;9.67;;;13.20;99.90;;;;;;5038325;28;20798;-79
2023/10/09 02:19:48;;;;;;;16.93;9.00;;;13.30;99.90;;;;;;5037315;28;20503;-79
2023/10/09 02:22:14;;;;;;;16.57;9.13;;;13.30;99.90;;;;;;5054694;28;20444;-78
2023/10/09 02:24:51;;;;;;;13.77;8.77;;;13.20;99.90;;;;;;5055273;28;20499;-79
2023/10/09 02:27:40;;;;;;;12.40;8.87;;;13.30;99.90;;;;;;5037095;28;20420;-79
2023/10/09 02:30:19;;;;;;;12.77;8.50;;;13.30;99.90;;;;;;5054874;28;20487;-79
2023/10/09 02:32:49;;;;;;;16.80;9.00;;;13.20;99.90;;;;;;5037472;28;20420;-79
2023/10/09 02:37:59;;;;;;;14.10;7.93;;;13.20;99.90;;;;;;5054742;28;20542;-79
2023/10/09 02:40:33;;;;;;;15.13;8.57;;;13.20;99.90;;;;;;5037302;28;20533;-79
2023/10/09 02:42:59;;;;;;;17.30;9.27;;;13.30;99.90;;;;;;5054744;28;20617;-79
2023/10/09 02:45:24;;;;;;;13.07;9.37;;;13.30;99.90;;;;;;5003634;28;20469;-78
2023/10/09 02:47:51;;;;;;;16.47;10.27;;;13.50;99.90;;;;;;5020803;28;20644;-79
2023/10/09 02:50:20;;;;;;;12.10;9.17;;;13.70;99.90;;;;;;5020319;28;20181;-79
2023/10/09 02:52:47;;;;;;;13.63;9.73;;;13.70;99.90;;;;;;5054889;28;20946;-79
2023/10/09 02:55:23;;;;;;;10.83;8.20;;;13.80;99.90;;;;;;5036804;28;20506;-79
2023/10/09 02:57:52;;;;;;;13.87;9.20;;;13.90;99.90;;;;;;5022260;28;20454;-79
2023/10/09 03:00:29;;;;;;;11.77;9.50;;;13.90;99.90;;;;;;5054616;28;20450;-79
2023/10/09 03:02:58;;;;;;;13.83;8.77;;;13.90;99.90;;;;;;5038604;28;20416;-79
2023/10/09 03:05:27;;;;;;;14.00;8.80;;;13.90;99.90;;;;;;5037169;28;20419;-79
2023/10/09 03:07:55;;;;;;;11.00;7.73;;;13.90;99.90;;;;;;5037016;28;20447;-79
2023/10/09 03:10:25;;;;;;;13.63;8.50;;;13.90;99.90;;;;;;5004173;28;20416;-79
2023/10/09 03:12:53;;;;;;;10.50;8.20;;;14.00;99.90;;;;;;5054640;28;20448;-79
2023/10/09 03:15:22;;;;;;;13.17;8.50;;;14.10;99.90;;;;;;5036439;28;20424;-79
2023/10/09 03:17:48;;;;;;;11.77;8.13;;;14.10;99.90;;;;;;5036527;28;20463;-79
2023/10/09 03:20:17;;;;;;;10.70;7.43;;;14.10;99.90;;;;;;5020197;28;20466;-79
2023/10/09 03:22:44;;;;;;;13.77;9.43;;;14.10;99.90;;;;;;5054480;28;20463;-79
2023/10/09 03:25:16;;;;;;;13.30;9.13;;;14.10;99.90;;;;;;5019909;28;20838;-79
2023/10/09 03:27:44;;;;;;;11.00;7.87;;;14.10;99.90;;;;;;5030789;28;20431;-79
2023/10/09 03:30:16;;;;;;;10.17;8.10;;;14.00;99.90;;;;;;5037378;28;20443;-79
2023/10/09 03:32:44;;;;;;;11.10;7.67;;;14.00;99.90;;;;;;5056900;28;20495;-79
2023/10/09 03:35:14;;;;;;;13.33;8.73;;;14.10;99.90;;;;;;5023263;28;20424;-79
2023/10/09 03:37:39;;;;;;;11.40;8.43;;;14.00;99.90;;;;;;5021215;28;20521;-79
2023/10/09 03:40:07;;;;;;;10.37;7.93;;;14.00;99.90;;;;;;5052128;28;20431;-79
2023/10/09 03:42:36;;;;;;;12.30;9.60;;;14.00;99.90;;;;;;5036226;28;20177;-78
2023/10/09 03:45:05;;;;;;;12.43;8.57;;;14.00;99.90;;;;;;5053677;28;20408;-79
2023/10/09 03:47:31;;;;;;;16.53;9.13;;;14.00;99.90;;;;;;5036120;28;20432;-79
2023/10/09 03:49:57;;;;;;;11.53;7.47;;;14.00;99.90;;;;;;5036025;28;20542;-79
2023/10/09 03:52:25;;;;;;;11.03;8.30;;;13.90;99.90;;;;;;5034492;28;20185;-79
2023/10/09 03:54:51;;;;;;;9.90;7.60;;;13.90;99.90;;;;;;5006980;28;20186;-79
2023/10/09 03:57:19;;;;;;;10.73;7.50;;;14.00;99.90;;;;;;5036593;28;20419;-79
2023/10/09 03:59:48;;;;;;;14.27;7.80;;;14.00;99.90;;;;;;5054390;28;20267;-79
2023/10/09 04:02:16;;;;;;;12.77;8.00;;;14.00;99.90;;;;;;5036395;28;20460;-79
2023/10/09 04:04:46;;;;;;;12.40;7.50;;;14.00;99.90;;;;;;5036243;28;20438;-79
2023/10/09 04:07:14;;;;;;;9.10;7.43;;;13.90;99.90;;;;;;5021997;28;20427;-79
2023/10/09 04:09:44;;;;;;;9.20;7.10;;;13.90;99.90;;;;;;5040583;28;20424;-79
2023/10/09 04:14:36;;;;;;;12.10;7.87;;;13.90;99.90;;;;;;5039642;28;20462;-79
2023/10/09 04:17:06;;;;;;;12.07;8.90;;;13.90;99.90;;;;;;5057669;28;20655;-79
2023/10/09 04:19:48;;;;;;;12.53;7.93;;;13.90;99.90;;;;;;5039531;28;20512;-79
2023/10/09 04:22:26;;;;;;;11.80;7.63;;;13.90;99.90;;;;;;5057173;28;20901;-79
2023/10/09 04:24:52;;;;;;;16.77;8.53;;;13.90;99.90;;;;;;5057491;28;20875;-79
2023/10/09 04:27:19;;;;;;;13.63;8.40;;;14.10;99.90;;;;;;5057458;28;20466;-79
2023/10/09 04:29:49;;;;;;;14.60;9.17;;;14.10;99.90;;;;;;5023613;28;20185;-79
2023/10/09 04:32:18;;;;;;;11.60;8.57;;;14.20;99.90;;;;;;5039535;28;20436;-79
2023/10/09 04:34:56;;;;;;;11.53;8.37;;;14.30;99.90;;;;;;5057131;28;20771;-79
2023/10/09 04:37:36;;;;;;;13.80;7.77;;;14.50;99.90;;;;;;5040940;28;20405;-79
2023/10/09 04:40:14;;;;;;;13.00;8.67;;;14.60;99.90;;;;;;5039651;28;20831;-79
2023/10/09 04:42:46;;;;;;;12.50;8.83;;;14.80;99.90;;;;;;5056983;28;20423;-79
2023/10/09 04:47:49;;;;;;;12.83;8.20;;;14.90;99.90;;;;;;5039675;28;20408;-79
2023/10/09 05:02:57;;;;;;;9.03;7.53;;;14.90;99.90;;;;;;5057037;28;20420;-79
2023/10/09 05:16:26;;;;;;;12.70;7.63;;;15.70;99.90;;;;;;5056372;28;20495;-79
2023/10/09 05:18:56;;;;;;;11.00;6.63;;;15.80;99.90;;;;;;5056035;28;20458;-79
2023/10/09 05:37:43;;;;;;;8.10;6.10;;;15.40;99.90;;;;;;5036625;28;20464;-79
2023/10/09 05:42:44;;;;;;;11.00;5.90;;;15.20;99.90;;;;;;5022393;28;20413;-79
2023/10/09 05:47:53;;;;;;;8.30;5.70;;;15.10;99.90;;;;;;5020273;28;20425;-79
2023/10/09 06:03:48;;;;;;;11.13;7.43;;;15.20;99.90;;;;;;4991479;28;20461;-80
2023/10/09 06:06:32;;;;;;;13.00;6.70;;;15.20;99.90;;;;;;4997112;28;20429;-80
2023/10/09 06:24:33;;;;;;;11.13;7.10;;;15.20;99.90;;;;;;5055260;28;20755;-79
2023/10/09 06:29:35;;;;;;;11.50;6.80;;;15.30;99.90;;;;;;5035757;28;20445;-80
2023/10/09 06:32:34;;;;;;;10.73;7.23;;;15.40;99.90;;;;;;5053085;28;20980;-80
2023/10/09 06:35:17;;;;;;;12.47;7.30;;;15.50;99.90;;;;;;5052691;28;20416;-80
2023/10/09 06:38:40;;;;;;;11.07;6.20;;;15.70;99.90;;;;;;5033837;28;20522;-84
2023/10/09 06:45:58;;;;;;;7.50;5.97;;;16.20;99.90;;;;;;5053940;28;20816;-85
2023/10/09 06:59:21;;;;;;;9.67;5.60;;;16.80;99.90;;;;;;5052084;28;20407;-85
2023/10/09 07:06:59;;;;;;;6.83;4.57;;;17.00;99.90;;;;;;5017436;28;20895;-85
2023/10/09 07:09:42;;;;;;;7.73;5.67;;;17.00;99.90;;;;;;5039131;28;20181;-85
2023/10/09 07:12:14;;;;;;;8.07;6.00;;;17.00;99.90;;;;;;5035868;28;20795;-85
2023/10/09 07:17:26;;;;;;;8.93;5.77;;;17.00;99.90;;;;;;5036067;28;20419;-85
2023/10/09 07:24:57;;;;;;;8.03;5.50;;;17.10;99.90;;;;;;5038432;28;20918;-85
2023/10/09 07:38:28;;;;;;;6.60;5.50;;;17.30;99.90;;;;;;5034945;28;20499;-85
2023/10/09 07:43:45;;;;;;;7.47;4.50;;;17.30;99.90;;;;;;5037901;28;20416;-85
2023/10/09 07:49:12;;;;;;;10.70;5.77;;;17.30;99.90;;;;;;5030709;28;20419;-86
2023/10/09 07:51:43;;;;;;;8.67;5.40;;;17.40;99.90;;;;;;5056425;28;20394;-85
2023/10/09 07:54:14;;;;;;;6.80;4.57;;;17.50;99.90;;;;;;5024405;28;20451;-85
2023/10/09 07:56:46;;;;;;;8.87;5.90;;;17.60;99.90;;;;;;5040537;28;20757;-84
2023/10/09 07:59:13;;;;;;;7.40;5.03;;;17.70;99.90;;;;;;5058922;28;20411;-85
2023/10/09 08:01:54;;;;;;;9.40;6.50;;;17.70;99.90;;;;;;5057847;28;20456;-80
2023/10/09 08:04:37;;;;;;;9.80;5.77;;;17.70;99.90;;;;;;5021478;28;20428;-80
2023/10/09 08:07:19;;;;;;;11.03;6.40;;;17.70;99.90;;;;;;5004859;28;20403;-80
2023/10/09 08:09:48;;;;;;;8.40;5.20;;;17.80;99.90;;;;;;5019729;28;20424;-81
2023/10/09 08:12:15;;;;;;;9.57;5.30;;;17.80;99.90;;;;;;5020509;28;20413;-80
2023/10/09 08:14:48;;;;;;;10.47;5.93;;;17.80;99.90;;;;;;5019370;28;20474;-80
2023/10/09 08:17:15;;;;;;;11.27;6.63;;;17.90;99.90;;;;;;5017199;28;20390;-80
2023/10/09 08:19:54;;;;;;;8.20;6.17;;;17.90;99.90;;;;;;5038355;28;20465;-80
2023/10/09 08:24:56;;;;;;;12.90;6.83;;;17.90;99.90;;;;;;5056961;28;20424;-79
2023/10/09 08:33:40;;;;;;;9.20;6.73;;;18.10;99.90;;;;;;5056627;28;20774;-80
2023/10/09 08:35:49;;;;;;;9.80;6.60;;;18.20;99.90;;;;;;5040522;28;20426;-80
2023/10/09 08:38:17;;;;;;;13.63;7.20;;;18.20;99.90;;;;;;5056541;28;20470;-81
2023/10/09 08:40:45;;;;;;;12.37;7.07;;;18.30;99.90;;;;;;5037903;28;20537;-80
2023/10/09 08:43:18;;;;;;;11.90;7.00;;;18.30;99.90;;;;;;5056692;28;20390;-82
2023/10/09 08:45:53;;;;;;;14.87;6.07;;;18.30;99.90;;;;;;5038140;28;20424;-82
2023/10/09 08:48:21;;;;;;;10.00;6.17;;;18.40;99.90;;;;;;5039249;28;20481;-82
2023/10/09 08:50:49;;;;;;;10.93;6.40;;;18.40;99.90;;;;;;5022515;28;20459;-82
2023/10/09 08:53:16;;;;;;;10.90;6.73;;;18.40;99.90;;;;;;5038216;28;20427;-82
2023/10/09 08:55:43;;;;;;;8.63;5.80;;;18.50;99.90;;;;;;5022094;28;20402;-81
2023/10/09 08:58:26;;;;;;;8.97;6.17;;;18.70;99.90;;;;;;5056222;28;20503;-81
2023/10/09 09:00:55;;;;;;;9.03;6.00;;;18.70;99.90;;;;;;5038876;28;20463;-81
2023/10/09 09:03:25;;;;;;;9.63;6.40;;;18.80;99.90;;;;;;5038844;28;20931;-82
2023/10/09 09:06:02;;;;;;;7.40;5.73;;;18.80;99.90;;;;;;5056171;28;20414;-82
2023/10/09 09:08:29;;;;;;;9.47;6.20;;;18.90;99.90;;;;;;5056181;28;20546;-82
2023/10/09 09:11:22;;;;;;;10.80;6.77;;;19.00;99.90;;;;;;5021847;28;20406;-81
2023/10/09 09:14:04;;;;;;;7.83;6.37;;;19.10;99.90;;;;;;5038360;28;20443;-81
2023/10/09 09:16:31;;;;;;;11.20;6.20;;;19.20;99.90;;;;;;5038505;28;20460;-82
2023/10/09 09:21:39;;;;;;;9.47;5.40;;;19.20;99.90;;;;;;5038279;28;20938;-82
2023/10/09 09:24:16;;;;;;;9.50;5.67;;;19.40;99.90;;;;;;5056136;28;20495;-81
2023/10/09 09:26:46;;;;;;;11.07;5.50;;;19.50;99.90;;;;;;5024553;28;20404;-81
2023/10/09 09:29:16;;;;;;;10.20;5.73;;;19.70;99.90;;;;;;5038613;28;20764;-81
2023/10/09 09:32:17;;;;;;;14.90;6.17;;;19.70;99.90;;;;;;5037618;28;20420;-81
2023/10/09 09:34:54;;;;;;;7.80;5.77;;;19.80;99.90;;;;;;5055182;28;20387;-81
2023/10/09 09:37:21;;;;;;;10.10;6.63;;;19.80;99.90;;;;;;5037540;28;20778;-81
2023/10/09 09:39:51;;;;;;;6.70;4.83;;;20.00;99.90;;;;;;5021228;28;20435;-80
2023/10/09 09:42:17;;;;;;;10.43;5.77;;;20.20;99.90;;;;;;5021777;28;20479;-81
2023/10/09 09:44:44;;;;;;;8.47;5.30;;;20.30;99.90;;;;;;5004834;28;20442;-81
2023/10/09 09:47:23;;;;;;;12.43;5.60;;;20.40;99.90;;;;;;5021056;28;20424;-80
2023/10/09 09:49:50;;;;;;;9.80;5.03;;;20.40;99.90;;;;;;5037470;28;20853;-81
2023/10/09 09:52:18;;;;;;;5.67;4.43;;;20.70;99.90;;;;;;5038124;28;20397;-81
2023/10/09 09:54:44;;;;;;;11.93;4.70;;;21.10;99.90;;;;;;5021056;28;20398;-81
2023/10/09 09:57:13;;;;;;;7.37;4.50;;;21.20;99.90;;;;;;5055462;28;20393;-81
2023/10/09 09:59:40;;;;;;;10.27;4.30;;;21.20;99.90;;;;;;5054820;28;20393;-81
2023/10/09 10:02:10;;;;;;;7.70;4.80;;;21.00;99.90;;;;;;5037443;28;20452;-81
2023/10/09 10:04:40;;;;;;;8.20;4.60;;;21.20;99.90;;;;;;5054130;28;20454;-81
2023/10/09 10:07:09;;;;;;;9.00;4.60;;;21.40;99.90;;;;;;5055002;28;20931;-81
2023/10/09 10:09:45;;;;;;;9.27;5.23;;;22.10;99.90;;;;;;5037936;28;20383;-81
2023/10/09 10:12:11;;;;;;;5.00;4.07;;;22.20;99.90;;;;;;5054951;28;20433;-80
2023/10/09 10:14:59;;;;;;;10.97;4.80;;;22.60;99.90;;;;;;5054975;28;20969;-81
2023/10/09 10:17:27;;;;;;;6.77;3.90;;;22.80;99.90;;;;;;5036827;28;20514;-81
2023/10/09 10:20:25;;;;;;;8.10;4.00;;;22.80;99.90;;;;;;5054384;28;20423;-81
2023/10/09 10:22:50;;;;;;;8.33;4.73;;;22.60;99.90;;;;;;5053928;28;20590;-81
2023/10/09 10:25:41;;;;;;;9.00;4.90;;;22.60;99.90;;;;;;5038100;28;20507;-81
2023/10/09 10:28:38;;;;;;;6.70;4.10;;;22.50;99.90;;;;;;5057636;28;20768;-81
2023/10/09 10:31:07;;;;;;;5.57;3.63;;;22.60;99.90;;;;;;5004095;28;20836;-81
2023/10/09 10:33:54;;;;;;;10.17;4.20;;;22.60;99.90;;;;;;5034756;28;20474;-81
2023/10/09 10:36:22;;;;;;;6.77;4.43;;;22.30;99.90;;;;;;5033280;28;20479;-81
2023/10/09 10:39:19;;;;;;;8.00;4.40;;;22.40;99.90;;;;;;4999843;28;20504;-80
2023/10/09 10:41:55;;;;;;;5.40;3.53;;;22.30;99.90;;;;;;5033987;28;20460;-81
2023/10/09 10:44:38;;;;;;;9.63;3.90;;;22.50;99.90;;;;;;5016764;28;20511;-80
2023/10/09 10:47:24;;;;;;;9.70;3.87;;;22.60;99.90;;;;;;5018216;28;20475;-81
2023/10/09 10:49:51;;;;;;;6.73;4.27;;;22.80;99.90;;;;;;5034537;28;20427;-80
2023/10/09 10:52:44;;;;;;;7.50;4.80;;;22.70;99.90;;;;;;5054223;28;20384;-81
2023/10/09 10:55:18;;;;;;;8.70;4.00;;;22.70;99.90;;;;;;5036008;28;20431;-80
2023/10/09 11:06:17;;;;;;;9.13;3.87;;;22.50;99.90;;;;;;5053650;28;20493;-80
2023/10/09 11:09:08;;;;;;;8.97;4.17;;;22.50;99.90;;;;;;5053615;28;20931;-81
2023/10/09 11:11:41;;;;;;;12.20;3.80;;;22.60;99.90;;;;;;5035420;28;20391;-80
2023/10/09 11:14:23;;;;;;;6.73;4.30;;;22.70;99.90;;;;;;5036738;28;20911;-80
2023/10/09 11:16:50;;;;;;;6.93;3.90;;;22.70;99.90;;;;;;5043402;28;20423;-81
2023/10/09 11:19:28;;;;;;;6.10;3.50;;;22.70;99.90;;;;;;5060446;28;20404;-81
2023/10/09 11:24:35;;;;;;;8.30;4.40;;;23.00;99.90;;;;;;5059869;28;20383;-81
2023/10/09 11:27:18;;;;;;;6.00;3.23;;;23.00;99.90;;;;;;5025900;28;20436;-81
2023/10/09 11:32:23;;;;;;;6.60;3.70;;;23.00;99.90;;;;;;5042348;28;20398;-81
2023/10/09 11:34:53;;;;;;;8.70;4.67;;;23.10;99.90;;;;;;5041871;28;20889;-81
2023/10/09 11:39:58;;;;;;;7.43;3.90;;;23.30;99.90;;;;;;5059179;28;20412;-81
2023/10/09 11:42:37;;;;;;;7.50;4.20;;;23.00;99.90;;;;;;5059641;28;20916;-81
2023/10/09 11:45:19;;;;;;;7.83;3.60;;;23.00;99.90;;;;;;5042375;28;20801;-80
2023/10/09 11:47:56;;;;;;;4.67;3.70;;;23.10;99.90;;;;;;5059592;28;20379;-81
2023/10/09 11:50:42;;;;;;;8.20;3.97;;;23.00;99.90;;;;;;5027096;28;20423;-80
2023/10/09 11:53:09;;;;;;;7.40;3.37;;;23.00;99.90;;;;;;5041846;28;20431;-80
2023/10/09 11:55:37;;;;;;;7.00;4.10;;;22.80;99.90;;;;;;5059619;28;20401;-81
2023/10/09 11:58:04;;;;;;;5.33;3.83;;;22.90;99.90;;;;;;5059742;28;20472;-81
2023/10/09 12:00:42;;;;;;;8.07;3.83;;;22.80;99.90;;;;;;5025302;28;20798;-80
2023/10/09 12:03:09;;;;;;;5.83;3.80;;;22.80;99.90;;;;;;5059840;28;20431;-81
2023/10/09 12:05:34;;;;;;;6.30;4.20;;;22.90;99.90;;;;;;5025581;28;20402;-81
2023/10/09 12:08:01;;;;;;;6.03;3.93;;;22.90;99.90;;;;;;5041515;28;20439;-80
2023/10/09 12:10:29;;;;;;;10.43;4.33;;;22.90;99.90;;;;;;5059747;28;20182;-80
2023/10/09 12:12:57;;;;;;;7.40;4.23;;;22.80;99.90;;;;;;5059274;28;20404;-81
2023/10/09 12:15:24;;;;;;;6.90;3.90;;;22.80;99.90;;;;;;5041803;28;20417;-81
2023/10/09 12:17:53;;;;;;;6.77;3.90;;;22.80;99.90;;;;;;5059749;28;20437;-80
2023/10/09 12:20:31;;;;;;;7.30;3.77;;;22.70;99.90;;;;;;5025833;28;20451;-80
2023/10/09 12:23:04;;;;;;;7.17;3.80;;;22.60;99.90;;;;;;5028768;28;20766;-81
2023/10/09 12:25:31;;;;;;;7.07;4.30;;;22.80;99.90;;;;;;5059221;28;20439;-80
2023/10/09 12:27:58;;;;;;;5.63;4.00;;;22.60;99.90;;;;;;5055938;28;20416;-80
2023/10/09 12:30:27;;;;;;;8.07;4.43;;;22.70;99.90;;;;;;5056394;28;20425;-80
2023/10/09 12:32:58;;;;;;;8.37;4.33;;;22.60;99.90;;;;;;5038891;28;20416;-81
2023/10/09 12:35:25;;;;;;;7.47;4.00;;;22.90;99.90;;;;;;5022027;28;20407;-81
2023/10/09 12:37:52;;;;;;;7.90;3.73;;;22.70;99.90;;;;;;5021562;28;20453;-81
2023/10/09 12:40:24;;;;;;;7.20;5.03;;;22.80;99.90;;;;;;5024861;28;20387;-81
2023/10/09 12:42:53;;;;;;;9.10;4.70;;;22.90;99.90;;;;;;5033723;28;20453;-80
2023/10/09 12:45:26;;;;;;;7.63;4.20;;;22.90;99.90;;;;;;5040515;28;20427;-81
2023/10/09 12:48:08;;;;;;;9.80;4.03;;;22.90;99.90;;;;;;5039782;28;20391;-81
2023/10/09 12:50:34;;;;;;;7.13;4.20;;;22.90;99.90;;;;;;5024333;28;20430;-81
2023/10/09 12:53:06;;;;;;;5.67;3.73;;;22.90;99.90;;;;;;5038519;28;20424;-81
2023/10/09 12:55:41;;;;;;;5.43;4.40;;;22.90;99.90;;;;;;5038562;28;20420;-80
2023/10/09 12:58:08;;;;;;;7.50;3.97;;;22.70;99.90;;;;;;5056086;28;20418;-80
2023/10/09 13:00:37;;;;;;;12.50;4.97;;;22.50;99.90;;;;;;5038220;28;20407;-81
2023/10/09 13:03:32;;;;;;;8.00;4.30;;;22.40;99.90;;;;;;5004889;28;20407;-81
2023/10/09 13:05:56;;;;;;;7.00;4.07;;;22.50;99.90;;;;;;5054636;28;20793;-81
2023/10/09 13:08:24;;;;;;;9.70;4.63;;;22.60;99.90;;;;;;5055871;28;20417;-80
2023/10/09 13:11:00;;;;;;;8.33;4.93;;;22.50;99.90;;;;;;5037537;28;20432;-81
2023/10/09 13:13:42;;;;;;;8.57;4.50;;;22.60;99.90;;;;;;5055840;28;20515;-81
2023/10/09 13:16:13;;;;;;;7.90;4.23;;;22.50;99.90;;;;;;5037885;28;20436;-80
2023/10/09 13:18:40;;;;;;;5.40;4.10;;;22.50;99.90;;;;;;5055552;28;20466;-81
2023/10/09 13:21:06;;;;;;;8.17;5.00;;;22.50;99.90;;;;;;5054501;28;20447;-80
2023/10/09 13:23:46;;;;;;;5.93;3.60;;;22.40;99.90;;;;;;5002408;28;20819;-80
2023/10/09 13:26:21;;;;;;;6.03;3.90;;;22.30;99.90;;;;;;5003631;28;20231;-80
2023/10/09 13:28:48;;;;;;;5.90;4.20;;;22.30;99.90;;;;;;5017861;28;20460;-81
2023/10/09 13:31:15;;;;;;;6.30;4.60;;;22.30;99.90;;;;;;5017536;28;20400;-80
2023/10/09 13:33:42;;;;;;;9.00;4.57;;;22.30;99.90;;;;;;5017778;28;20384;-80
2023/10/09 13:36:17;;;;;;;7.13;3.70;;;22.30;99.90;;;;;;5035891;28;20384;-79
2023/10/09 13:38:43;;;;;;;7.27;3.80;;;22.30;99.90;;;;;;5002169;28;20483;-80
2023/10/09 13:41:12;;;;;;;10.73;4.43;;;22.20;99.90;;;;;;5017735;28;21016;-80
2023/10/09 13:43:43;;;;;;;7.43;4.37;;;22.20;99.90;;;;;;5001507;28;20407;-80
2023/10/09 13:46:11;;;;;;;9.40;4.67;;;22.10;99.90;;;;;;5022533;28;20901;-81
2023/10/09 13:48:41;;;;;;;8.97;4.37;;;22.20;99.90;;;;;;5037991;28;20383;-80
2023/10/09 13:51:13;;;;;;;8.40;4.33;;;22.20;99.90;;;;;;5017895;28;20780;-80
2023/10/09 13:53:45;;;;;;;10.00;4.03;;;22.30;99.90;;;;;;5021254;28;20923;-79
2023/10/09 13:56:18;;;;;;;6.83;4.10;;;22.10;99.90;;;;;;5054883;28;20424;-80
2023/10/09 13:58:45;;;;;;;10.93;4.50;;;22.10;99.90;;;;;;5020960;28;20447;-80
2023/10/09 14:01:10;;;;;;;10.73;4.73;;;22.10;99.90;;;;;;5054884;28;20449;-80
2023/10/09 14:03:38;;;;;;;8.33;4.17;;;22.10;99.90;;;;;;5036919;28;20383;-80
2023/10/09 14:06:12;;;;;;;8.20;4.00;;;22.10;99.90;;;;;;5036798;28;20182;-81
2023/10/09 14:08:44;;;;;;;5.43;4.20;;;22.10;99.90;;;;;;5022948;28;20426;-80
2023/10/09 14:11:13;;;;;;;7.33;4.07;;;22.10;99.90;;;;;;5037703;28;20444;-81
2023/10/09 14:13:42;;;;;;;8.00;4.10;;;22.20;99.90;;;;;;5036443;28;20420;-80
2023/10/09 14:16:23;;;;;;;6.17;3.40;;;22.10;99.90;;;;;;5054165;28;20390;-80
2023/10/09 14:18:53;;;;;;;6.87;4.17;;;22.10;99.90;;;;;;5036814;28;20430;-80
2023/10/09 14:21:21;;;;;;;9.47;5.00;;;22.10;99.90;;;;;;5037168;28;20914;-81
2023/10/09 14:23:48;;;;;;;8.17;5.00;;;22.20;99.90;;;;;;5035520;28;20435;-81
2023/10/09 14:26:14;;;;;;;11.27;5.00;;;22.30;99.90;;;;;;5036794;28;20406;-80
2023/10/09 14:28:42;;;;;;;6.80;4.40;;;22.50;99.90;;;;;;5036390;28;20409;-80
2023/10/09 14:31:12;;;;;;;11.93;4.80;;;22.50;99.90;;;;;;5036648;28;20452;-81
2023/10/09 14:33:37;;;;;;;6.50;4.50;;;22.30;99.90;;;;;;5037199;28;20386;-81
2023/10/09 14:36:05;;;;;;;7.83;4.80;;;22.40;99.90;;;;;;5036130;28;20389;-80
2023/10/09 14:38:33;;;;;;;6.83;4.60;;;22.30;99.90;;;;;;5036008;28;20252;-80
2023/10/09 14:40:59;;;;;;;5.17;4.30;;;22.20;99.90;;;;;;5053859;28;20770;-80
2023/10/09 14:43:29;;;;;;;7.40;5.10;;;22.20;99.90;;;;;;5020170;28;20410;-80
2023/10/09 14:45:55;;;;;;;8.93;4.37;;;22.10;99.90;;;;;;5053726;28;20404;-81
2023/10/09 14:48:27;;;;;;;7.40;4.60;;;22.20;99.90;;;;;;5019544;28;20432;-81
2023/10/09 14:51:04;;;;;;;6.20;5.10;;;22.30;99.90;;;;;;5052965;28;20416;-81
2023/10/09 14:53:30;;;;;;;10.40;5.33;;;22.30;99.90;;;;;;5053915;28;20422;-80
2023/10/09 14:55:56;;;;;;;12.93;5.97;;;22.10;99.90;;;;;;5019801;28;20512;-79
2023/10/09 14:58:25;;;;;;;7.37;5.30;;;22.00;99.90;;;;;;5038092;28;20729;-80
2023/10/09 15:00:54;;;;;;;5.70;4.80;;;22.00;99.90;;;;;;5035662;28;20438;-80
2023/10/09 15:03:20;;;;;;;8.00;5.30;;;22.10;99.90;;;;;;5035978;28;20416;-80
2023/10/09 15:05:46;;;;;;;7.70;5.00;;;22.10;99.90;;;;;;5025480;28;20462;-81
2023/10/09 15:08:11;;;;;;;8.00;5.17;;;22.10;99.90;;;;;;5016371;28;20247;-80
2023/10/09 15:10:48;;;;;;;12.43;5.93;;;22.10;99.90;;;;;;5015998;28;20413;-80
2023/10/09 15:13:17;;;;;;;13.17;5.63;;;22.20;99.90;;;;;;5016152;28;20173;-80
2023/10/09 15:15:50;;;;;;;8.33;5.17;;;22.20;99.90;;;;;;4999638;28;20772;-81
2023/10/09 15:18:18;;;;;;;8.93;5.43;;;22.20;99.90;;;;;;5033610;28;20440;-81
2023/10/09 15:20:45;;;;;;;9.60;4.87;;;22.20;99.90;;;;;;4999530;28;20452;-81
2023/10/09 15:23:10;;;;;;;8.43;5.60;;;22.30;99.90;;;;;;5015689;28;20408;-80
2023/10/09 15:25:39;;;;;;;7.50;4.80;;;22.00;99.90;;;;;;5033033;28;20432;-80
2023/10/09 15:28:06;;;;;;;10.93;6.50;;;22.00;99.90;;;;;;5052105;28;20211;-81
2023/10/09 15:30:33;;;;;;;6.73;5.43;;;21.90;99.90;;;;;;5053515;28;20410;-81
2023/10/09 15:32:59;;;;;;;8.07;5.30;;;21.80;99.90;;;;;;5053156;28;20416;-81
2023/10/09 15:35:28;;;;;;;7.40;4.97;;;21.90;99.90;;;;;;5053723;28;20404;-81
2023/10/09 15:37:54;;;;;;;7.73;5.70;;;21.90;99.90;;;;;;5018837;28;20584;-80
2023/10/09 15:40:23;;;;;;;9.63;5.83;;;22.00;99.90;;;;;;5053531;28;20465;-81
2023/10/09 15:42:49;;;;;;;8.87;5.30;;;22.00;99.90;;;;;;5051688;28;20217;-82
2023/10/09 15:45:16;;;;;;;13.87;5.33;;;22.10;99.90;;;;;;5018831;28;20420;-81
2023/10/09 15:47:42;;;;;;;9.30;5.17;;;22.00;99.90;;;;;;5035508;28;20848;-81
2023/10/09 15:50:10;;;;;;;8.80;5.27;;;22.00;99.90;;;;;;5035369;28;20391;-79
2023/10/09 15:52:37;;;;;;;9.03;5.10;;;21.90;99.90;;;;;;5035288;28;20434;-81
2023/10/09 15:55:04;;;;;;;10.97;5.40;;;21.90;99.90;;;;;;5018802;28;20929;-81